sensor_id;sensor_type;location;lat;lon;timestamp;P1;durP1;ratioP1;P2;durP2;ratioP2
2848;SDS011;59355;52.416;13.412;2023-03-20T00:03:48;8.10;;;7.40;;
2848;SDS011;59355;52.416;13.412;2023-03-20T00:06:14;8.40;;;6.93;;
2848;SDS011;59355;52.416;13.412;2023-03-20T00:08:41;7.00;;;6.10;;
2848;SDS011;59355;52.416;13.412;2023-03-20T00:11:14;9.40;;;7.60;;
2848;SDS011;59355;52.416;13.412;2023-03-20T00:13:55;8.47;;;7.67;;
2848;SDS011;59355;52.416;13.412;2023-03-20T00:16:22;8.60;;;7.80;;
2848;SDS011;59355;52.416;13.412;2023-03-20T00:18:48;8.77;;;7.97;;
2848;SDS011;59355;52.416;13.412;2023-03-20T00:21:16;8.50;;;7.70;;
2848;SDS011;59355;52.416;13.412;2023-03-20T00:23:42;9.27;;;7.50;;
2848;SDS011;59355;52.416;13.412;2023-03-20T00:26:11;8.43;;;7.73;;
2848;SDS011;59355;52.416;13.412;2023-03-20T00:28:39;10.80;;;9.00;;
2848;SDS011;59355;52.416;13.412;2023-03-20T00:33:51;9.40;;;7.80;;
2848;SDS011;59355;52.416;13.412;2023-03-20T00:36:18;8.87;;;8.07;;
2848;SDS011;59355;52.416;13.412;2023-03-20T00:38:43;8.20;;;7.50;;
2848;SDS011;59355;52.416;13.412;2023-03-20T00:41:19;10.53;;;7.67;;
2848;SDS011;59355;52.416;13.412;2023-03-20T00:46:50;9.70;;;8.90;;
2848;SDS011;59355;52.416;13.412;2023-03-20T00:49:19;8.27;;;7.43;;
2848;SDS011;59355;52.416;13.412;2023-03-20T00:51:46;9.57;;;8.40;;
2848;SDS011;59355;52.416;13.412;2023-03-20T00:54:12;9.97;;;8.33;;
2848;SDS011;59355;52.416;13.412;2023-03-20T00:56:39;8.80;;;7.90;;
2848;SDS011;59355;52.416;13.412;2023-03-20T00:59:08;8.70;;;7.90;;
2848;SDS011;59355;52.416;13.412;2023-03-20T01:01:38;7.80;;;7.03;;
2848;SDS011;59355;52.416;13.412;2023-03-20T01:04:04;9.07;;;7.60;;
2848;SDS011;59355;52.416;13.412;2023-03-20T01:06:35;10.20;;;9.10;;
2848;SDS011;59355;52.416;13.412;2023-03-20T01:09:01;9.90;;;8.07;;
2848;SDS011;59355;52.416;13.412;2023-03-20T01:11:27;9.93;;;8.93;;
2848;SDS011;59355;52.416;13.412;2023-03-20T01:13:53;9.03;;;8.23;;
2848;SDS011;59355;52.416;13.412;2023-03-20T01:16:20;8.50;;;7.70;;
2848;SDS011;59355;52.416;13.412;2023-03-20T01:18:47;9.57;;;8.23;;
2848;SDS011;59355;52.416;13.412;2023-03-20T01:21:13;9.73;;;8.83;;
2848;SDS011;59355;52.416;13.412;2023-03-20T01:23:38;9.13;;;8.37;;
2848;SDS011;59355;52.416;13.412;2023-03-20T01:26:03;7.87;;;7.17;;
2848;SDS011;59355;52.416;13.412;2023-03-20T01:28:35;8.10;;;7.37;;
2848;SDS011;59355;52.416;13.412;2023-03-20T01:31:00;9.37;;;8.47;;
2848;SDS011;59355;52.416;13.412;2023-03-20T01:33:26;8.13;;;7.43;;
2848;SDS011;59355;52.416;13.412;2023-03-20T01:35:53;9.70;;;8.80;;
2848;SDS011;59355;52.416;13.412;2023-03-20T01:38:24;8.27;;;7.50;;
2848;SDS011;59355;52.416;13.412;2023-03-20T01:40:57;8.87;;;8.00;;
2848;SDS011;59355;52.416;13.412;2023-03-20T01:43:28;11.63;;;10.23;;
2848;SDS011;59355;52.416;13.412;2023-03-20T01:45:56;11.07;;;10.07;;
2848;SDS011;59355;52.416;13.412;2023-03-20T01:48:23;12.23;;;10.60;;
2848;SDS011;59355;52.416;13.412;2023-03-20T01:50:51;10.50;;;9.50;;
2848;SDS011;59355;52.416;13.412;2023-03-20T01:53:18;11.23;;;10.07;;
2848;SDS011;59355;52.416;13.412;2023-03-20T01:55:45;10.53;;;9.60;;
2848;SDS011;59355;52.416;13.412;2023-03-20T01:58:21;11.53;;;10.30;;
2848;SDS011;59355;52.416;13.412;2023-03-20T02:00:50;12.00;;;9.80;;
2848;SDS011;59355;52.416;13.412;2023-03-20T02:03:15;10.30;;;9.40;;
2848;SDS011;59355;52.416;13.412;2023-03-20T02:05:41;10.97;;;9.97;;
2848;SDS011;59355;52.416;13.412;2023-03-20T02:08:14;10.20;;;9.30;;
2848;SDS011;59355;52.416;13.412;2023-03-20T02:10:42;10.77;;;9.60;;
2848;SDS011;59355;52.416;13.412;2023-03-20T02:13:09;9.93;;;8.93;;
2848;SDS011;59355;52.416;13.412;2023-03-20T02:15:35;10.60;;;9.67;;
2848;SDS011;59355;52.416;13.412;2023-03-20T02:18:00;10.47;;;9.47;;
2848;SDS011;59355;52.416;13.412;2023-03-20T02:20:49;9.93;;;9.03;;
2848;SDS011;59355;52.416;13.412;2023-03-20T02:23:44;11.20;;;10.20;;
2848;SDS011;59355;52.416;13.412;2023-03-20T02:26:30;9.93;;;9.00;;
2848;SDS011;59355;52.416;13.412;2023-03-20T02:32:08;11.97;;;10.77;;
2848;SDS011;59355;52.416;13.412;2023-03-20T02:43:03;10.77;;;9.87;;
2848;SDS011;59355;52.416;13.412;2023-03-20T02:48:45;10.50;;;9.60;;
2848;SDS011;59355;52.416;13.412;2023-03-20T02:51:21;11.67;;;10.77;;
2848;SDS011;59355;52.416;13.412;2023-03-20T02:54:06;11.97;;;10.93;;
2848;SDS011;59355;52.416;13.412;2023-03-20T02:59:28;11.67;;;10.20;;
2848;SDS011;59355;52.416;13.412;2023-03-20T03:02:04;12.00;;;10.80;;
2848;SDS011;59355;52.416;13.412;2023-03-20T03:04:35;11.70;;;10.70;;
2848;SDS011;59355;52.416;13.412;2023-03-20T03:07:02;12.60;;;11.23;;
2848;SDS011;59355;52.416;13.412;2023-03-20T03:09:33;13.00;;;11.13;;
2848;SDS011;59355;52.416;13.412;2023-03-20T03:12:17;10.97;;;10.00;;
2848;SDS011;59355;52.416;13.412;2023-03-20T03:14:46;11.77;;;10.70;;
2848;SDS011;59355;52.416;13.412;2023-03-20T03:17:14;11.87;;;10.77;;
2848;SDS011;59355;52.416;13.412;2023-03-20T03:19:41;11.20;;;10.10;;
2848;SDS011;59355;52.416;13.412;2023-03-20T03:22:09;11.20;;;10.30;;
2848;SDS011;59355;52.416;13.412;2023-03-20T03:24:37;11.67;;;10.67;;
2848;SDS011;59355;52.416;13.412;2023-03-20T03:27:09;11.33;;;10.23;;
2848;SDS011;59355;52.416;13.412;2023-03-20T03:29:39;16.13;;;11.17;;
2848;SDS011;59355;52.416;13.412;2023-03-20T03:32:06;14.57;;;12.33;;
2848;SDS011;59355;52.416;13.412;2023-03-20T03:34:32;11.73;;;10.53;;
2848;SDS011;59355;52.416;13.412;2023-03-20T03:37:06;13.00;;;11.90;;
2848;SDS011;59355;52.416;13.412;2023-03-20T03:39:40;12.73;;;11.53;;
2848;SDS011;59355;52.416;13.412;2023-03-20T03:42:19;12.10;;;10.87;;
2848;SDS011;59355;52.416;13.412;2023-03-20T03:50:25;11.40;;;10.30;;
2848;SDS011;59355;52.416;13.412;2023-03-20T03:52:54;10.57;;;9.10;;
2848;SDS011;59355;52.416;13.412;2023-03-20T03:55:24;11.00;;;10.00;;
2848;SDS011;59355;52.416;13.412;2023-03-20T03:57:52;11.00;;;9.43;;
2848;SDS011;59355;52.416;13.412;2023-03-20T04:00:22;11.17;;;10.00;;
2848;SDS011;59355;52.416;13.412;2023-03-20T04:02:50;11.07;;;9.93;;
2848;SDS011;59355;52.416;13.412;2023-03-20T04:05:18;10.90;;;9.90;;
2848;SDS011;59355;52.416;13.412;2023-03-20T04:07:44;11.17;;;10.17;;
2848;SDS011;59355;52.416;13.412;2023-03-20T04:10:10;11.30;;;10.10;;
2848;SDS011;59355;52.416;13.412;2023-03-20T04:12:37;12.03;;;10.83;;
2848;SDS011;59355;52.416;13.412;2023-03-20T04:15:05;10.53;;;9.43;;
2848;SDS011;59355;52.416;13.412;2023-03-20T04:17:31;11.77;;;10.63;;
2848;SDS011;59355;52.416;13.412;2023-03-20T04:19:57;10.90;;;9.87;;
2848;SDS011;59355;52.416;13.412;2023-03-20T04:22:22;11.77;;;10.53;;
2848;SDS011;59355;52.416;13.412;2023-03-20T04:24:48;12.93;;;11.47;;
2848;SDS011;59355;52.416;13.412;2023-03-20T04:27:14;12.17;;;10.97;;
2848;SDS011;59355;52.416;13.412;2023-03-20T04:29:39;11.30;;;10.30;;
2848;SDS011;59355;52.416;13.412;2023-03-20T04:32:05;13.87;;;9.50;;
2848;SDS011;59355;52.416;13.412;2023-03-20T04:34:31;13.10;;;10.63;;
2848;SDS011;59355;52.416;13.412;2023-03-20T04:36:56;12.13;;;11.03;;
2848;SDS011;59355;52.416;13.412;2023-03-20T04:39:22;12.20;;;11.00;;
2848;SDS011;59355;52.416;13.412;2023-03-20T04:41:47;12.73;;;11.73;;
2848;SDS011;59355;52.416;13.412;2023-03-20T04:44:13;12.80;;;11.60;;
2848;SDS011;59355;52.416;13.412;2023-03-20T04:46:38;13.73;;;11.40;;
2848;SDS011;59355;52.416;13.412;2023-03-20T04:49:03;14.33;;;12.83;;
2848;SDS011;59355;52.416;13.412;2023-03-20T04:51:29;12.17;;;11.07;;
2848;SDS011;59355;52.416;13.412;2023-03-20T04:53:54;13.90;;;12.60;;
2848;SDS011;59355;52.416;13.412;2023-03-20T04:56:19;12.97;;;11.73;;
2848;SDS011;59355;52.416;13.412;2023-03-20T04:58:45;12.20;;;10.67;;
2848;SDS011;59355;52.416;13.412;2023-03-20T05:01:10;12.30;;;11.20;;
2848;SDS011;59355;52.416;13.412;2023-03-20T05:03:35;14.27;;;13.07;;
2848;SDS011;59355;52.416;13.412;2023-03-20T05:06:01;13.70;;;12.40;;
2848;SDS011;59355;52.416;13.412;2023-03-20T05:08:26;14.20;;;12.70;;
2848;SDS011;59355;52.416;13.412;2023-03-20T05:10:51;13.70;;;12.40;;
2848;SDS011;59355;52.416;13.412;2023-03-20T05:13:17;14.63;;;13.33;;
2848;SDS011;59355;52.416;13.412;2023-03-20T05:15:42;15.43;;;13.93;;
2848;SDS011;59355;52.416;13.412;2023-03-20T05:18:07;14.17;;;12.50;;
2848;SDS011;59355;52.416;13.412;2023-03-20T05:20:33;15.10;;;13.63;;
2848;SDS011;59355;52.416;13.412;2023-03-20T05:23:00;13.40;;;12.20;;
2848;SDS011;59355;52.416;13.412;2023-03-20T05:25:25;13.30;;;12.00;;
2848;SDS011;59355;52.416;13.412;2023-03-20T05:27:51;13.87;;;12.47;;
2848;SDS011;59355;52.416;13.412;2023-03-20T05:30:16;13.50;;;12.13;;
2848;SDS011;59355;52.416;13.412;2023-03-20T05:32:43;13.17;;;12.00;;
2848;SDS011;59355;52.416;13.412;2023-03-20T05:35:09;15.40;;;13.30;;
2848;SDS011;59355;52.416;13.412;2023-03-20T05:37:34;15.07;;;13.43;;
2848;SDS011;59355;52.416;13.412;2023-03-20T05:39:59;14.27;;;12.77;;
2848;SDS011;59355;52.416;13.412;2023-03-20T05:42:25;15.07;;;13.10;;
2848;SDS011;59355;52.416;13.412;2023-03-20T05:44:50;19.17;;;15.90;;
2848;SDS011;59355;52.416;13.412;2023-03-20T05:47:15;18.97;;;15.00;;
2848;SDS011;59355;52.416;13.412;2023-03-20T05:49:41;15.40;;;13.80;;
2848;SDS011;59355;52.416;13.412;2023-03-20T05:52:06;15.27;;;13.97;;
2848;SDS011;59355;52.416;13.412;2023-03-20T05:54:31;16.50;;;14.80;;
2848;SDS011;59355;52.416;13.412;2023-03-20T05:56:57;15.87;;;14.00;;
2848;SDS011;59355;52.416;13.412;2023-03-20T05:59:22;16.30;;;14.50;;
2848;SDS011;59355;52.416;13.412;2023-03-20T06:01:47;18.40;;;15.90;;
2848;SDS011;59355;52.416;13.412;2023-03-20T06:04:13;17.40;;;15.70;;
2848;SDS011;59355;52.416;13.412;2023-03-20T12:14:44;12.80;;;9.57;;
2848;SDS011;59355;52.416;13.412;2023-03-20T12:17:33;11.07;;;9.03;;
2848;SDS011;59355;52.416;13.412;2023-03-20T12:25:38;17.10;;;10.17;;
2848;SDS011;59355;52.416;13.412;2023-03-20T12:28:25;11.90;;;9.90;;
2848;SDS011;59355;52.416;13.412;2023-03-20T12:30:56;13.57;;;10.03;;
2848;SDS011;59355;52.416;13.412;2023-03-20T12:33:39;14.03;;;10.37;;
2848;SDS011;59355;52.416;13.412;2023-03-20T12:36:30;11.00;;;9.07;;
2848;SDS011;59355;52.416;13.412;2023-03-20T12:38:57;9.80;;;8.40;;
2848;SDS011;59355;52.416;13.412;2023-03-20T12:41:28;12.00;;;8.93;;
2848;SDS011;59355;52.416;13.412;2023-03-20T12:44:04;18.57;;;11.23;;
2848;SDS011;59355;52.416;13.412;2023-03-20T12:46:50;13.50;;;10.77;;
2848;SDS011;59355;52.416;13.412;2023-03-20T12:49:32;11.30;;;9.80;;
2848;SDS011;59355;52.416;13.412;2023-03-20T12:55:24;13.00;;;10.10;;
2848;SDS011;59355;52.416;13.412;2023-03-20T12:58:04;19.97;;;11.90;;
2848;SDS011;59355;52.416;13.412;2023-03-20T13:00:43;13.83;;;10.90;;
2848;SDS011;59355;52.416;13.412;2023-03-20T13:03:22;13.87;;;10.73;;
2848;SDS011;59355;52.416;13.412;2023-03-20T13:08:50;12.23;;;10.37;;
2848;SDS011;59355;52.416;13.412;2023-03-20T13:16:56;12.47;;;9.90;;
2848;SDS011;59355;52.416;13.412;2023-03-20T13:19:33;14.67;;;11.23;;
2848;SDS011;59355;52.416;13.412;2023-03-20T13:22:22;15.07;;;10.37;;
2848;SDS011;59355;52.416;13.412;2023-03-20T13:24:59;15.97;;;11.43;;
2848;SDS011;59355;52.416;13.412;2023-03-20T13:27:47;12.60;;;10.93;;
2848;SDS011;59355;52.416;13.412;2023-03-20T13:30:19;18.33;;;11.80;;
2848;SDS011;59355;52.416;13.412;2023-03-20T13:33:04;15.60;;;12.00;;
2848;SDS011;59355;52.416;13.412;2023-03-20T13:38:19;16.80;;;12.40;;
2848;SDS011;59355;52.416;13.412;2023-03-20T13:40:46;17.40;;;13.53;;
2848;SDS011;59355;52.416;13.412;2023-03-20T13:45:50;17.53;;;12.60;;
2848;SDS011;59355;52.416;13.412;2023-03-20T13:48:31;14.17;;;11.70;;
2848;SDS011;59355;52.416;13.412;2023-03-20T13:51:10;14.00;;;12.10;;
2848;SDS011;59355;52.416;13.412;2023-03-20T13:58:54;18.00;;;13.27;;
2848;SDS011;59355;52.416;13.412;2023-03-20T14:03:55;17.37;;;13.53;;
2848;SDS011;59355;52.416;13.412;2023-03-20T14:08:55;14.80;;;12.43;;
2848;SDS011;59355;52.416;13.412;2023-03-20T14:13:48;13.33;;;11.93;;
2848;SDS011;59355;52.416;13.412;2023-03-20T14:16:16;14.83;;;12.33;;
2848;SDS011;59355;52.416;13.412;2023-03-20T14:18:43;16.60;;;12.47;;
2848;SDS011;59355;52.416;13.412;2023-03-20T14:21:11;14.57;;;12.27;;
2848;SDS011;59355;52.416;13.412;2023-03-20T14:23:38;20.23;;;14.00;;
2848;SDS011;59355;52.416;13.412;2023-03-20T14:26:09;17.10;;;12.97;;
2848;SDS011;59355;52.416;13.412;2023-03-20T14:28:43;19.47;;;14.37;;
2848;SDS011;59355;52.416;13.412;2023-03-20T14:31:11;16.00;;;13.50;;
2848;SDS011;59355;52.416;13.412;2023-03-20T14:33:51;21.47;;;15.73;;
2848;SDS011;59355;52.416;13.412;2023-03-20T14:36:19;17.87;;;13.40;;
2848;SDS011;59355;52.416;13.412;2023-03-20T14:39:08;16.37;;;13.97;;
2848;SDS011;59355;52.416;13.412;2023-03-20T14:47:52;19.07;;;15.43;;
2848;SDS011;59355;52.416;13.412;2023-03-20T14:53:15;21.90;;;18.00;;
2848;SDS011;59355;52.416;13.412;2023-03-20T15:01:14;23.30;;;15.50;;
2848;SDS011;59355;52.416;13.412;2023-03-20T15:03:41;22.23;;;17.03;;
2848;SDS011;59355;52.416;13.412;2023-03-20T15:06:08;19.33;;;16.43;;
2848;SDS011;59355;52.416;13.412;2023-03-20T15:08:36;25.53;;;18.23;;
2848;SDS011;59355;52.416;13.412;2023-03-20T15:11:08;22.03;;;15.70;;
2848;SDS011;59355;52.416;13.412;2023-03-20T15:13:34;23.23;;;16.27;;
2848;SDS011;59355;52.416;13.412;2023-03-20T15:18:35;18.90;;;14.97;;
2848;SDS011;59355;52.416;13.412;2023-03-20T15:21:01;16.87;;;14.13;;
2848;SDS011;59355;52.416;13.412;2023-03-20T15:23:27;20.10;;;16.70;;
2848;SDS011;59355;52.416;13.412;2023-03-20T15:25:52;19.60;;;15.17;;
2848;SDS011;59355;52.416;13.412;2023-03-20T15:30:48;19.93;;;16.83;;
2848;SDS011;59355;52.416;13.412;2023-03-20T15:33:15;21.60;;;16.57;;
2848;SDS011;59355;52.416;13.412;2023-03-20T15:35:47;19.00;;;15.50;;
2848;SDS011;59355;52.416;13.412;2023-03-20T15:38:13;20.83;;;16.10;;
2848;SDS011;59355;52.416;13.412;2023-03-20T15:40:39;21.10;;;16.10;;
2848;SDS011;59355;52.416;13.412;2023-03-20T15:43:16;24.23;;;17.60;;
2848;SDS011;59355;52.416;13.412;2023-03-20T15:45:44;21.60;;;16.53;;
2848;SDS011;59355;52.416;13.412;2023-03-20T15:48:17;19.60;;;15.57;;
2848;SDS011;59355;52.416;13.412;2023-03-20T15:50:44;23.43;;;17.50;;
2848;SDS011;59355;52.416;13.412;2023-03-20T15:53:35;23.63;;;18.07;;
2848;SDS011;59355;52.416;13.412;2023-03-20T15:56:03;23.33;;;15.43;;
2848;SDS011;59355;52.416;13.412;2023-03-20T15:58:33;20.57;;;15.63;;
2848;SDS011;59355;52.416;13.412;2023-03-20T16:00:58;21.17;;;16.43;;
2848;SDS011;59355;52.416;13.412;2023-03-20T16:03:25;19.87;;;15.20;;
2848;SDS011;59355;52.416;13.412;2023-03-20T16:05:51;20.23;;;17.13;;
2848;SDS011;59355;52.416;13.412;2023-03-20T16:08:22;25.37;;;15.63;;
2848;SDS011;59355;52.416;13.412;2023-03-20T16:10:53;24.43;;;17.43;;
2848;SDS011;59355;52.416;13.412;2023-03-20T16:13:25;19.90;;;17.30;;
2848;SDS011;59355;52.416;13.412;2023-03-20T16:15:54;20.43;;;15.90;;
2848;SDS011;59355;52.416;13.412;2023-03-20T16:18:19;17.43;;;15.20;;
2848;SDS011;59355;52.416;13.412;2023-03-20T16:23:18;23.23;;;16.83;;
2848;SDS011;59355;52.416;13.412;2023-03-20T16:25:50;19.70;;;16.90;;
2848;SDS011;59355;52.416;13.412;2023-03-20T16:28:21;16.03;;;14.30;;
2848;SDS011;59355;52.416;13.412;2023-03-20T16:30:46;23.10;;;16.47;;
2848;SDS011;59355;52.416;13.412;2023-03-20T16:33:12;19.37;;;15.83;;
2848;SDS011;59355;52.416;13.412;2023-03-20T16:35:48;22.90;;;16.30;;
2848;SDS011;59355;52.416;13.412;2023-03-20T16:38:15;18.30;;;15.87;;
2848;SDS011;59355;52.416;13.412;2023-03-20T16:43:55;17.67;;;15.33;;
2848;SDS011;59355;52.416;13.412;2023-03-20T16:46:21;19.70;;;15.77;;
2848;SDS011;59355;52.416;13.412;2023-03-20T16:48:50;21.23;;;16.07;;
2848;SDS011;59355;52.416;13.412;2023-03-20T16:51:19;19.97;;;16.17;;
2848;SDS011;59355;52.416;13.412;2023-03-20T16:53:56;20.90;;;16.20;;
2848;SDS011;59355;52.416;13.412;2023-03-20T16:56:24;23.70;;;16.33;;
2848;SDS011;59355;52.416;13.412;2023-03-20T16:58:51;20.97;;;16.77;;
2848;SDS011;59355;52.416;13.412;2023-03-20T17:01:18;17.00;;;14.60;;
2848;SDS011;59355;52.416;13.412;2023-03-20T17:03:49;21.63;;;16.50;;
2848;SDS011;59355;52.416;13.412;2023-03-20T17:08:55;21.00;;;16.70;;
2848;SDS011;59355;52.416;13.412;2023-03-20T17:11:30;19.40;;;16.37;;
2848;SDS011;59355;52.416;13.412;2023-03-20T17:13:57;21.57;;;16.57;;
2848;SDS011;59355;52.416;13.412;2023-03-20T17:16:23;20.10;;;16.87;;
2848;SDS011;59355;52.416;13.412;2023-03-20T17:19:09;28.17;;;16.37;;
2848;SDS011;59355;52.416;13.412;2023-03-20T17:21:38;20.23;;;16.70;;
2848;SDS011;59355;52.416;13.412;2023-03-20T17:24:03;17.30;;;14.80;;
2848;SDS011;59355;52.416;13.412;2023-03-20T17:26:29;18.70;;;15.80;;
2848;SDS011;59355;52.416;13.412;2023-03-20T17:28:54;18.30;;;14.50;;
2848;SDS011;59355;52.416;13.412;2023-03-20T17:31:20;16.30;;;13.50;;
2848;SDS011;59355;52.416;13.412;2023-03-20T17:33:45;21.37;;;16.80;;
2848;SDS011;59355;52.416;13.412;2023-03-20T17:36:19;19.30;;;16.20;;
2848;SDS011;59355;52.416;13.412;2023-03-20T17:38:47;19.40;;;15.70;;
2848;SDS011;59355;52.416;13.412;2023-03-20T17:41:13;21.00;;;16.00;;
2848;SDS011;59355;52.416;13.412;2023-03-20T17:43:40;19.03;;;15.57;;
2848;SDS011;59355;52.416;13.412;2023-03-20T17:46:08;19.00;;;16.57;;
2848;SDS011;59355;52.416;13.412;2023-03-20T17:48:37;17.37;;;14.80;;
2848;SDS011;59355;52.416;13.412;2023-03-20T17:51:02;21.10;;;16.20;;
2848;SDS011;59355;52.416;13.412;2023-03-20T17:53:28;18.47;;;15.20;;
2848;SDS011;59355;52.416;13.412;2023-03-20T17:55:54;20.27;;;15.00;;
2848;SDS011;59355;52.416;13.412;2023-03-20T17:58:20;19.10;;;16.33;;
2848;SDS011;59355;52.416;13.412;2023-03-20T18:00:48;19.67;;;16.07;;
2848;SDS011;59355;52.416;13.412;2023-03-20T18:03:16;21.33;;;16.70;;
2848;SDS011;59355;52.416;13.412;2023-03-20T18:05:43;19.07;;;16.60;;
2848;SDS011;59355;52.416;13.412;2023-03-20T18:08:19;21.50;;;16.80;;
2848;SDS011;59355;52.416;13.412;2023-03-20T18:10:46;20.27;;;17.60;;
2848;SDS011;59355;52.416;13.412;2023-03-20T18:13:15;21.90;;;16.60;;
2848;SDS011;59355;52.416;13.412;2023-03-20T18:15:44;20.90;;;16.33;;
2848;SDS011;59355;52.416;13.412;2023-03-20T18:18:11;20.00;;;17.77;;
2848;SDS011;59355;52.416;13.412;2023-03-20T18:20:37;22.57;;;18.30;;
2848;SDS011;59355;52.416;13.412;2023-03-20T18:23:04;20.60;;;18.40;;
2848;SDS011;59355;52.416;13.412;2023-03-20T18:25:30;22.07;;;18.00;;
2848;SDS011;59355;52.416;13.412;2023-03-20T18:27:56;21.20;;;17.80;;
2848;SDS011;59355;52.416;13.412;2023-03-20T18:30:23;22.53;;;18.70;;
2848;SDS011;59355;52.416;13.412;2023-03-20T18:32:50;22.30;;;18.53;;
2848;SDS011;59355;52.416;13.412;2023-03-20T18:35:16;21.17;;;18.83;;
2848;SDS011;59355;52.416;13.412;2023-03-20T18:37:41;27.07;;;19.57;;
2848;SDS011;59355;52.416;13.412;2023-03-20T18:40:18;20.07;;;17.53;;
2848;SDS011;59355;52.416;13.412;2023-03-20T18:42:45;25.03;;;20.97;;
2848;SDS011;59355;52.416;13.412;2023-03-20T18:45:11;24.23;;;20.77;;
2848;SDS011;59355;52.416;13.412;2023-03-20T18:47:36;22.60;;;20.17;;
2848;SDS011;59355;52.416;13.412;2023-03-20T18:50:02;22.90;;;18.97;;
2848;SDS011;59355;52.416;13.412;2023-03-20T18:52:27;19.67;;;16.30;;
2848;SDS011;59355;52.416;13.412;2023-03-20T18:54:53;22.30;;;19.27;;
2848;SDS011;59355;52.416;13.412;2023-03-20T18:57:18;22.80;;;19.70;;
2848;SDS011;59355;52.416;13.412;2023-03-20T18:59:43;18.43;;;16.20;;
2848;SDS011;59355;52.416;13.412;2023-03-20T19:02:09;24.47;;;18.90;;
2848;SDS011;59355;52.416;13.412;2023-03-20T19:04:34;21.70;;;18.53;;
2848;SDS011;59355;52.416;13.412;2023-03-20T19:07:00;21.93;;;18.50;;
2848;SDS011;59355;52.416;13.412;2023-03-20T19:09:25;24.73;;;18.97;;
2848;SDS011;59355;52.416;13.412;2023-03-20T19:11:51;23.90;;;20.20;;
2848;SDS011;59355;52.416;13.412;2023-03-20T19:14:16;20.83;;;18.57;;
2848;SDS011;59355;52.416;13.412;2023-03-20T19:16:41;22.50;;;18.10;;
2848;SDS011;59355;52.416;13.412;2023-03-20T19:19:07;22.10;;;18.90;;
2848;SDS011;59355;52.416;13.412;2023-03-20T19:21:33;22.80;;;18.17;;
2848;SDS011;59355;52.416;13.412;2023-03-20T19:24:02;26.27;;;18.13;;
2848;SDS011;59355;52.416;13.412;2023-03-20T19:26:29;21.27;;;18.90;;
2848;SDS011;59355;52.416;13.412;2023-03-20T19:28:56;22.00;;;17.80;;
2848;SDS011;59355;52.416;13.412;2023-03-20T19:31:22;21.50;;;18.23;;
2848;SDS011;59355;52.416;13.412;2023-03-20T19:33:48;21.07;;;18.63;;
2848;SDS011;59355;52.416;13.412;2023-03-20T19:36:27;20.57;;;17.13;;
2848;SDS011;59355;52.416;13.412;2023-03-20T19:38:54;20.70;;;18.50;;
2848;SDS011;59355;52.416;13.412;2023-03-20T19:41:21;22.30;;;19.90;;
2848;SDS011;59355;52.416;13.412;2023-03-20T19:43:46;21.63;;;19.33;;
2848;SDS011;59355;52.416;13.412;2023-03-20T19:46:13;29.10;;;19.53;;
2848;SDS011;59355;52.416;13.412;2023-03-20T19:48:40;26.43;;;21.33;;
2848;SDS011;59355;52.416;13.412;2023-03-20T19:51:07;23.43;;;20.90;;
2848;SDS011;59355;52.416;13.412;2023-03-20T19:53:40;23.10;;;20.13;;
2848;SDS011;59355;52.416;13.412;2023-03-20T19:56:06;23.63;;;20.67;;
2848;SDS011;59355;52.416;13.412;2023-03-20T19:58:31;24.43;;;20.87;;
2848;SDS011;59355;52.416;13.412;2023-03-20T20:00:57;22.27;;;19.93;;
2848;SDS011;59355;52.416;13.412;2023-03-20T20:03:22;24.70;;;20.53;;
2848;SDS011;59355;52.416;13.412;2023-03-20T20:05:49;22.17;;;19.90;;
2848;SDS011;59355;52.416;13.412;2023-03-20T20:08:15;20.00;;;17.97;;
2848;SDS011;59355;52.416;13.412;2023-03-20T20:10:42;18.50;;;16.60;;
2848;SDS011;59355;52.416;13.412;2023-03-20T20:13:13;19.83;;;17.90;;
2848;SDS011;59355;52.416;13.412;2023-03-20T20:15:40;21.13;;;15.80;;
2848;SDS011;59355;52.416;13.412;2023-03-20T20:18:06;22.23;;;20.03;;
2848;SDS011;59355;52.416;13.412;2023-03-20T20:20:31;20.60;;;18.60;;
2848;SDS011;59355;52.416;13.412;2023-03-20T20:22:59;28.33;;;25.20;;
2848;SDS011;59355;52.416;13.412;2023-03-20T20:25:25;25.63;;;22.30;;
2848;SDS011;59355;52.416;13.412;2023-03-20T20:27:50;32.37;;;28.97;;
2848;SDS011;59355;52.416;13.412;2023-03-20T20:30:16;22.93;;;20.70;;
2848;SDS011;59355;52.416;13.412;2023-03-20T20:32:42;18.93;;;17.10;;
2848;SDS011;59355;52.416;13.412;2023-03-20T20:35:09;30.53;;;27.57;;
2848;SDS011;59355;52.416;13.412;2023-03-20T20:37:37;18.40;;;16.70;;
2848;SDS011;59355;52.416;13.412;2023-03-20T20:40:05;19.50;;;17.57;;
2848;SDS011;59355;52.416;13.412;2023-03-20T20:42:35;18.90;;;17.00;;
2848;SDS011;59355;52.416;13.412;2023-03-20T20:45:01;19.07;;;17.10;;
2848;SDS011;59355;52.416;13.412;2023-03-20T20:47:27;17.63;;;15.93;;
2848;SDS011;59355;52.416;13.412;2023-03-20T20:49:52;17.07;;;15.30;;
2848;SDS011;59355;52.416;13.412;2023-03-20T20:52:17;19.00;;;17.30;;
2848;SDS011;59355;52.416;13.412;2023-03-20T20:54:43;21.37;;;18.10;;
2848;SDS011;59355;52.416;13.412;2023-03-20T20:57:08;17.77;;;15.87;;
2848;SDS011;59355;52.416;13.412;2023-03-20T20:59:34;20.63;;;18.63;;
2848;SDS011;59355;52.416;13.412;2023-03-20T21:02:01;20.90;;;16.43;;
2848;SDS011;59355;52.416;13.412;2023-03-20T21:04:34;18.30;;;16.40;;
2848;SDS011;59355;52.416;13.412;2023-03-20T21:06:59;20.63;;;16.60;;
2848;SDS011;59355;52.416;13.412;2023-03-20T21:09:25;17.37;;;15.77;;
2848;SDS011;59355;52.416;13.412;2023-03-20T21:11:51;20.33;;;16.87;;
2848;SDS011;59355;52.416;13.412;2023-03-20T21:14:16;17.60;;;16.00;;
2848;SDS011;59355;52.416;13.412;2023-03-20T21:16:41;17.03;;;15.43;;
2848;SDS011;59355;52.416;13.412;2023-03-20T21:19:06;18.87;;;16.03;;
2848;SDS011;59355;52.416;13.412;2023-03-20T21:21:32;18.67;;;16.87;;
2848;SDS011;59355;52.416;13.412;2023-03-20T21:23:59;18.27;;;16.43;;
2848;SDS011;59355;52.416;13.412;2023-03-20T21:26:24;20.03;;;18.20;;
2848;SDS011;59355;52.416;13.412;2023-03-20T21:28:51;18.80;;;17.00;;
2848;SDS011;59355;52.416;13.412;2023-03-20T21:31:20;18.13;;;16.43;;
2848;SDS011;59355;52.416;13.412;2023-03-20T21:33:50;17.33;;;15.83;;
2848;SDS011;59355;52.416;13.412;2023-03-20T21:36:16;18.03;;;16.20;;
2848;SDS011;59355;52.416;13.412;2023-03-20T21:38:41;18.10;;;16.40;;
2848;SDS011;59355;52.416;13.412;2023-03-20T21:41:07;17.80;;;16.13;;
2848;SDS011;59355;52.416;13.412;2023-03-20T21:43:33;17.33;;;15.60;;
2848;SDS011;59355;52.416;13.412;2023-03-20T21:45:59;17.87;;;16.00;;
2848;SDS011;59355;52.416;13.412;2023-03-20T21:48:25;18.27;;;16.57;;
2848;SDS011;59355;52.416;13.412;2023-03-20T21:50:50;17.57;;;15.80;;
2848;SDS011;59355;52.416;13.412;2023-03-20T21:53:16;16.90;;;15.40;;
2848;SDS011;59355;52.416;13.412;2023-03-20T21:55:42;17.40;;;15.67;;
2848;SDS011;59355;52.416;13.412;2023-03-20T21:58:07;18.80;;;16.80;;
2848;SDS011;59355;52.416;13.412;2023-03-20T22:00:32;18.20;;;16.40;;
2848;SDS011;59355;52.416;13.412;2023-03-20T22:02:57;17.60;;;15.97;;
2848;SDS011;59355;52.416;13.412;2023-03-20T22:05:23;22.27;;;18.50;;
2848;SDS011;59355;52.416;13.412;2023-03-20T22:07:50;19.53;;;17.47;;
2848;SDS011;59355;52.416;13.412;2023-03-20T22:10:16;19.70;;;17.80;;
2848;SDS011;59355;52.416;13.412;2023-03-20T22:12:41;22.77;;;20.57;;
2848;SDS011;59355;52.416;13.412;2023-03-20T22:15:06;22.30;;;20.03;;
2848;SDS011;59355;52.416;13.412;2023-03-20T22:17:32;20.83;;;18.93;;